sensor_id;sensor_type;location;lat;lon;timestamp;P1;durP1;ratioP1;P2;durP2;ratioP2
26050;SDS011;13825;53.496;10.020;2022-11-18T00:00:04;17.70;;;9.03;;
26050;SDS011;13825;53.496;10.020;2022-11-18T00:02:33;16.07;;;7.93;;
26050;SDS011;13825;53.496;10.020;2022-11-18T00:05:13;19.07;;;9.00;;
26050;SDS011;13825;53.496;10.020;2022-11-18T00:07:55;16.73;;;8.47;;
26050;SDS011;13825;53.496;10.020;2022-11-18T00:10:25;25.57;;;9.87;;
26050;SDS011;13825;53.496;10.020;2022-11-18T00:13:00;19.17;;;8.90;;
26050;SDS011;13825;53.496;10.020;2022-11-18T00:15:52;22.57;;;9.70;;
26050;SDS011;13825;53.496;10.020;2022-11-18T00:18:37;18.23;;;8.67;;
26050;SDS011;13825;53.496;10.020;2022-11-18T00:21:10;14.30;;;8.03;;
26050;SDS011;13825;53.496;10.020;2022-11-18T00:23:44;17.17;;;9.23;;
26050;SDS011;13825;53.496;10.020;2022-11-18T00:26:31;21.90;;;8.93;;
26050;SDS011;13825;53.496;10.020;2022-11-18T00:29:05;14.67;;;8.23;;
26050;SDS011;13825;53.496;10.020;2022-11-18T00:31:34;21.43;;;10.27;;
26050;SDS011;13825;53.496;10.020;2022-11-18T00:34:23;17.20;;;8.77;;
26050;SDS011;13825;53.496;10.020;2022-11-18T00:36:52;19.40;;;8.47;;
26050;SDS011;13825;53.496;10.020;2022-11-18T00:39:35;17.83;;;8.57;;
26050;SDS011;13825;53.496;10.020;2022-11-18T00:42:04;16.50;;;7.73;;
26050;SDS011;13825;53.496;10.020;2022-11-18T00:44:53;22.43;;;9.33;;
26050;SDS011;13825;53.496;10.020;2022-11-18T00:47:27;18.37;;;8.27;;
26050;SDS011;13825;53.496;10.020;2022-11-18T00:50:05;16.57;;;8.87;;
26050;SDS011;13825;53.496;10.020;2022-11-18T00:52:36;18.37;;;8.70;;
26050;SDS011;13825;53.496;10.020;2022-11-18T00:55:07;21.57;;;9.23;;
26050;SDS011;13825;53.496;10.020;2022-11-18T00:57:37;22.17;;;9.03;;
26050;SDS011;13825;53.496;10.020;2022-11-18T01:00:13;15.27;;;8.63;;
26050;SDS011;13825;53.496;10.020;2022-11-18T01:02:41;19.03;;;9.20;;
26050;SDS011;13825;53.496;10.020;2022-11-18T01:05:23;16.43;;;8.67;;
26050;SDS011;13825;53.496;10.020;2022-11-18T01:07:58;15.87;;;8.93;;
26050;SDS011;13825;53.496;10.020;2022-11-18T01:10:25;16.37;;;8.40;;
26050;SDS011;13825;53.496;10.020;2022-11-18T01:12:54;18.50;;;9.37;;
26050;SDS011;13825;53.496;10.020;2022-11-18T01:15:43;17.20;;;8.73;;
26050;SDS011;13825;53.496;10.020;2022-11-18T01:18:21;15.60;;;8.27;;
26050;SDS011;13825;53.496;10.020;2022-11-18T01:20:58;18.90;;;8.70;;
26050;SDS011;13825;53.496;10.020;2022-11-18T01:23:29;18.50;;;9.27;;
26050;SDS011;13825;53.496;10.020;2022-11-18T01:26:02;20.17;;;9.03;;
26050;SDS011;13825;53.496;10.020;2022-11-18T01:28:41;19.37;;;9.00;;
26050;SDS011;13825;53.496;10.020;2022-11-18T01:31:13;17.80;;;8.87;;
26050;SDS011;13825;53.496;10.020;2022-11-18T01:33:47;18.90;;;9.43;;
26050;SDS011;13825;53.496;10.020;2022-11-18T01:36:19;19.80;;;9.00;;
26050;SDS011;13825;53.496;10.020;2022-11-18T01:39:03;21.00;;;9.07;;
26050;SDS011;13825;53.496;10.020;2022-11-18T01:41:45;18.43;;;8.07;;
26050;SDS011;13825;53.496;10.020;2022-11-18T01:44:56;19.83;;;9.57;;
26050;SDS011;13825;53.496;10.020;2022-11-18T01:47:35;19.33;;;9.27;;
26050;SDS011;13825;53.496;10.020;2022-11-18T01:50:21;17.57;;;9.80;;
26050;SDS011;13825;53.496;10.020;2022-11-18T01:53:08;16.70;;;8.37;;
26050;SDS011;13825;53.496;10.020;2022-11-18T01:55:42;19.63;;;9.30;;
26050;SDS011;13825;53.496;10.020;2022-11-18T01:58:29;22.17;;;9.77;;
26050;SDS011;13825;53.496;10.020;2022-11-18T02:01:26;18.17;;;8.07;;
26050;SDS011;13825;53.496;10.020;2022-11-18T02:10:33;17.73;;;9.33;;
26050;SDS011;13825;53.496;10.020;2022-11-18T02:16:43;22.10;;;9.37;;
26050;SDS011;13825;53.496;10.020;2022-11-18T02:20:08;17.53;;;9.23;;
26050;SDS011;13825;53.496;10.020;2022-11-18T02:26:31;20.50;;;9.77;;
26050;SDS011;13825;53.496;10.020;2022-11-18T02:32:38;23.33;;;11.17;;
26050;SDS011;13825;53.496;10.020;2022-11-18T02:36:04;24.47;;;10.23;;
26050;SDS011;13825;53.496;10.020;2022-11-18T02:42:14;25.63;;;12.03;;
26050;SDS011;13825;53.496;10.020;2022-11-18T02:45:14;22.70;;;11.50;;
26050;SDS011;13825;53.496;10.020;2022-11-18T02:48:33;23.40;;;11.00;;
26050;SDS011;13825;53.496;10.020;2022-11-18T02:51:40;26.43;;;11.77;;
26050;SDS011;13825;53.496;10.020;2022-11-18T02:54:39;24.37;;;11.60;;
26050;SDS011;13825;53.496;10.020;2022-11-18T02:57:26;22.67;;;11.50;;
26050;SDS011;13825;53.496;10.020;2022-11-18T03:02:58;25.10;;;11.33;;
26050;SDS011;13825;53.496;10.020;2022-11-18T03:05:34;21.67;;;11.50;;
26050;SDS011;13825;53.496;10.020;2022-11-18T03:08:08;26.20;;;11.33;;
26050;SDS011;13825;53.496;10.020;2022-11-18T03:10:44;24.60;;;11.60;;
26050;SDS011;13825;53.496;10.020;2022-11-18T03:13:22;23.93;;;11.70;;
26050;SDS011;13825;53.496;10.020;2022-11-18T03:15:57;24.13;;;11.67;;
26050;SDS011;13825;53.496;10.020;2022-11-18T03:18:35;21.77;;;11.30;;
26050;SDS011;13825;53.496;10.020;2022-11-18T03:21:12;21.27;;;11.40;;
26050;SDS011;13825;53.496;10.020;2022-11-18T03:23:49;23.93;;;10.97;;
26050;SDS011;13825;53.496;10.020;2022-11-18T03:26:27;26.50;;;13.23;;
26050;SDS011;13825;53.496;10.020;2022-11-18T03:29:22;33.13;;;12.53;;
26050;SDS011;13825;53.496;10.020;2022-11-18T03:32:30;20.70;;;10.03;;
26050;SDS011;13825;53.496;10.020;2022-11-18T03:35:15;23.30;;;11.37;;
26050;SDS011;13825;53.496;10.020;2022-11-18T03:37:54;23.63;;;10.87;;
26050;SDS011;13825;53.496;10.020;2022-11-18T03:40:40;26.33;;;12.40;;
26050;SDS011;13825;53.496;10.020;2022-11-18T03:43:12;19.80;;;10.13;;
26050;SDS011;13825;53.496;10.020;2022-11-18T03:45:44;21.80;;;10.97;;
26050;SDS011;13825;53.496;10.020;2022-11-18T03:48:19;24.30;;;11.97;;
26050;SDS011;13825;53.496;10.020;2022-11-18T03:50:51;23.90;;;11.30;;
26050;SDS011;13825;53.496;10.020;2022-11-18T03:53:31;23.60;;;10.83;;
26050;SDS011;13825;53.496;10.020;2022-11-18T03:56:17;24.40;;;11.53;;
26050;SDS011;13825;53.496;10.020;2022-11-18T03:58:57;18.43;;;10.47;;
26050;SDS011;13825;53.496;10.020;2022-11-18T04:01:36;23.20;;;9.97;;
26050;SDS011;13825;53.496;10.020;2022-11-18T04:04:10;18.40;;;10.10;;
26050;SDS011;13825;53.496;10.020;2022-11-18T04:06:44;20.47;;;10.73;;
26050;SDS011;13825;53.496;10.020;2022-11-18T04:09:22;21.20;;;11.20;;
26050;SDS011;13825;53.496;10.020;2022-11-18T04:12:14;23.93;;;10.57;;
26050;SDS011;13825;53.496;10.020;2022-11-18T04:14:50;18.03;;;9.73;;
26050;SDS011;13825;53.496;10.020;2022-11-18T04:17:20;21.13;;;10.10;;
26050;SDS011;13825;53.496;10.020;2022-11-18T04:19:54;24.17;;;10.53;;
26050;SDS011;13825;53.496;10.020;2022-11-18T04:22:27;24.00;;;11.07;;
26050;SDS011;13825;53.496;10.020;2022-11-18T04:25:04;23.60;;;11.30;;
26050;SDS011;13825;53.496;10.020;2022-11-18T04:27:33;19.33;;;9.60;;
26050;SDS011;13825;53.496;10.020;2022-11-18T04:30:08;22.27;;;10.03;;
26050;SDS011;13825;53.496;10.020;2022-11-18T04:33:01;22.13;;;10.40;;
26050;SDS011;13825;53.496;10.020;2022-11-18T04:35:48;22.33;;;10.80;;
26050;SDS011;13825;53.496;10.020;2022-11-18T04:38:21;19.80;;;9.70;;
26050;SDS011;13825;53.496;10.020;2022-11-18T04:41:23;22.50;;;10.17;;
26050;SDS011;13825;53.496;10.020;2022-11-18T04:44:06;24.43;;;10.83;;
26050;SDS011;13825;53.496;10.020;2022-11-18T04:47:01;21.00;;;9.67;;
26050;SDS011;13825;53.496;10.020;2022-11-18T04:49:56;24.43;;;11.50;;
26050;SDS011;13825;53.496;10.020;2022-11-18T04:55:43;20.43;;;10.40;;
26050;SDS011;13825;53.496;10.020;2022-11-18T04:58:15;20.20;;;9.10;;
26050;SDS011;13825;53.496;10.020;2022-11-18T05:00:51;22.53;;;10.60;;
26050;SDS011;13825;53.496;10.020;2022-11-18T05:03:21;21.03;;;10.53;;
26050;SDS011;13825;53.496;10.020;2022-11-18T05:06:03;19.00;;;9.53;;
26050;SDS011;13825;53.496;10.020;2022-11-18T05:08:41;20.57;;;10.43;;
26050;SDS011;13825;53.496;10.020;2022-11-18T05:11:10;23.37;;;11.53;;
26050;SDS011;13825;53.496;10.020;2022-11-18T05:14:00;19.87;;;10.53;;
26050;SDS011;13825;53.496;10.020;2022-11-18T05:16:27;25.13;;;10.90;;
26050;SDS011;13825;53.496;10.020;2022-11-18T05:19:00;21.07;;;10.60;;
26050;SDS011;13825;53.496;10.020;2022-11-18T05:25:13;20.80;;;11.37;;
26050;SDS011;13825;53.496;10.020;2022-11-18T05:27:40;22.67;;;11.33;;
26050;SDS011;13825;53.496;10.020;2022-11-18T05:30:09;25.67;;;11.80;;
26050;SDS011;13825;53.496;10.020;2022-11-18T05:32:39;21.73;;;10.53;;
26050;SDS011;13825;53.496;10.020;2022-11-18T05:35:10;22.93;;;11.60;;
26050;SDS011;13825;53.496;10.020;2022-11-18T05:37:39;28.10;;;12.30;;
26050;SDS011;13825;53.496;10.020;2022-11-18T05:40:11;24.10;;;11.97;;
26050;SDS011;13825;53.496;10.020;2022-11-18T05:42:39;22.10;;;10.83;;
26050;SDS011;13825;53.496;10.020;2022-11-18T05:45:48;21.37;;;11.40;;
26050;SDS011;13825;53.496;10.020;2022-11-18T05:48:18;24.80;;;12.13;;
26050;SDS011;13825;53.496;10.020;2022-11-18T05:50:45;24.80;;;11.93;;
26050;SDS011;13825;53.496;10.020;2022-11-18T05:53:17;24.53;;;10.97;;
26050;SDS011;13825;53.496;10.020;2022-11-18T05:55:52;26.97;;;11.93;;
26050;SDS011;13825;53.496;10.020;2022-11-18T05:58:28;26.23;;;11.47;;
26050;SDS011;13825;53.496;10.020;2022-11-18T06:51:45;24.63;;;12.83;;
26050;SDS011;13825;53.496;10.020;2022-11-18T07:04:44;25.50;;;12.77;;
26050;SDS011;13825;53.496;10.020;2022-11-18T07:17:44;31.00;;;13.40;;
26050;SDS011;13825;53.496;10.020;2022-11-18T07:31:34;24.33;;;12.20;;
26050;SDS011;13825;53.496;10.020;2022-11-18T08:08:07;22.40;;;10.53;;
26050;SDS011;13825;53.496;10.020;2022-11-18T08:11:10;24.83;;;12.53;;
26050;SDS011;13825;53.496;10.020;2022-11-18T08:13:58;27.20;;;13.07;;
26050;SDS011;13825;53.496;10.020;2022-11-18T08:16:26;24.97;;;12.47;;
26050;SDS011;13825;53.496;10.020;2022-11-18T08:18:59;21.33;;;11.03;;
26050;SDS011;13825;53.496;10.020;2022-11-18T08:21:29;26.00;;;11.90;;
26050;SDS011;13825;53.496;10.020;2022-11-18T08:24:00;25.77;;;12.20;;
26050;SDS011;13825;53.496;10.020;2022-11-18T08:26:27;28.27;;;12.83;;
26050;SDS011;13825;53.496;10.020;2022-11-18T08:29:00;22.50;;;11.13;;
26050;SDS011;13825;53.496;10.020;2022-11-18T08:31:45;22.60;;;10.73;;
26050;SDS011;13825;53.496;10.020;2022-11-18T08:34:20;24.30;;;11.83;;
26050;SDS011;13825;53.496;10.020;2022-11-18T08:37:01;23.63;;;11.70;;
26050;SDS011;13825;53.496;10.020;2022-11-18T08:39:40;23.07;;;11.23;;
26050;SDS011;13825;53.496;10.020;2022-11-18T08:42:12;24.07;;;11.63;;
26050;SDS011;13825;53.496;10.020;2022-11-18T08:44:48;23.63;;;11.53;;
26050;SDS011;13825;53.496;10.020;2022-11-18T08:47:53;22.97;;;10.97;;
26050;SDS011;13825;53.496;10.020;2022-11-18T08:50:46;22.43;;;12.13;;
26050;SDS011;13825;53.496;10.020;2022-11-18T08:53:14;24.90;;;11.87;;
26050;SDS011;13825;53.496;10.020;2022-11-18T08:58:46;25.87;;;12.80;;
26050;SDS011;13825;53.496;10.020;2022-11-18T09:01:30;24.27;;;12.00;;
26050;SDS011;13825;53.496;10.020;2022-11-18T09:06:50;24.27;;;11.90;;
26050;SDS011;13825;53.496;10.020;2022-11-18T09:09:22;22.50;;;11.50;;
26050;SDS011;13825;53.496;10.020;2022-11-18T09:12:11;25.20;;;11.33;;
26050;SDS011;13825;53.496;10.020;2022-11-18T09:14:51;19.37;;;10.93;;
26050;SDS011;13825;53.496;10.020;2022-11-18T09:17:25;22.73;;;11.37;;
26050;SDS011;13825;53.496;10.020;2022-11-18T09:20:01;21.13;;;11.03;;
26050;SDS011;13825;53.496;10.020;2022-11-18T09:22:34;21.17;;;10.83;;
26050;SDS011;13825;53.496;10.020;2022-11-18T09:25:17;23.00;;;11.30;;
26050;SDS011;13825;53.496;10.020;2022-11-18T09:27:56;20.23;;;11.23;;
26050;SDS011;13825;53.496;10.020;2022-11-18T09:30:29;19.53;;;10.97;;
26050;SDS011;13825;53.496;10.020;2022-11-18T09:32:57;23.13;;;11.23;;
26050;SDS011;13825;53.496;10.020;2022-11-18T09:35:25;20.73;;;10.77;;
26050;SDS011;13825;53.496;10.020;2022-11-18T09:37:52;21.43;;;11.63;;
26050;SDS011;13825;53.496;10.020;2022-11-18T09:40:22;20.73;;;11.73;;
26050;SDS011;13825;53.496;10.020;2022-11-18T09:42:58;22.13;;;10.87;;
26050;SDS011;13825;53.496;10.020;2022-11-18T09:46:07;20.83;;;11.37;;
26050;SDS011;13825;53.496;10.020;2022-11-18T09:48:53;21.77;;;11.10;;
26050;SDS011;13825;53.496;10.020;2022-11-18T09:51:53;22.73;;;10.90;;
26050;SDS011;13825;53.496;10.020;2022-11-18T09:54:27;20.30;;;11.60;;
26050;SDS011;13825;53.496;10.020;2022-11-18T09:57:12;19.17;;;10.87;;
26050;SDS011;13825;53.496;10.020;2022-11-18T09:59:43;19.63;;;10.77;;
26050;SDS011;13825;53.496;10.020;2022-11-18T10:05:17;23.23;;;12.03;;
26050;SDS011;13825;53.496;10.020;2022-11-18T10:10:57;18.90;;;9.80;;
26050;SDS011;13825;53.496;10.020;2022-11-18T10:13:46;20.93;;;11.20;;
26050;SDS011;13825;53.496;10.020;2022-11-18T10:16:39;20.60;;;10.17;;
26050;SDS011;13825;53.496;10.020;2022-11-18T10:19:21;18.43;;;9.27;;
26050;SDS011;13825;53.496;10.020;2022-11-18T10:21:57;16.97;;;8.80;;
26050;SDS011;13825;53.496;10.020;2022-11-18T10:24:40;17.87;;;9.80;;
26050;SDS011;13825;53.496;10.020;2022-11-18T10:27:10;18.03;;;9.57;;
26050;SDS011;13825;53.496;10.020;2022-11-18T10:29:50;18.43;;;9.40;;
26050;SDS011;13825;53.496;10.020;2022-11-18T10:32:23;20.90;;;9.70;;
26050;SDS011;13825;53.496;10.020;2022-11-18T10:34:54;16.07;;;9.57;;
26050;SDS011;13825;53.496;10.020;2022-11-18T10:37:24;20.43;;;9.17;;
26050;SDS011;13825;53.496;10.020;2022-11-18T10:39:55;15.60;;;8.97;;
26050;SDS011;13825;53.496;10.020;2022-11-18T10:42:27;16.47;;;8.90;;
26050;SDS011;13825;53.496;10.020;2022-11-18T10:45:13;15.23;;;7.90;;
26050;SDS011;13825;53.496;10.020;2022-11-18T10:47:44;14.67;;;8.27;;
26050;SDS011;13825;53.496;10.020;2022-11-18T10:50:33;15.97;;;8.83;;
26050;SDS011;13825;53.496;10.020;2022-11-18T10:53:05;15.10;;;8.50;;
26050;SDS011;13825;53.496;10.020;2022-11-18T10:55:58;15.10;;;8.00;;
26050;SDS011;13825;53.496;10.020;2022-11-18T10:58:45;16.73;;;7.37;;
26050;SDS011;13825;53.496;10.020;2022-11-18T11:01:18;13.60;;;7.67;;
26050;SDS011;13825;53.496;10.020;2022-11-18T11:03:51;15.20;;;8.30;;
26050;SDS011;13825;53.496;10.020;2022-11-18T11:06:28;18.30;;;8.93;;
26050;SDS011;13825;53.496;10.020;2022-11-18T11:09:03;12.73;;;7.30;;
26050;SDS011;13825;53.496;10.020;2022-11-18T11:11:56;13.17;;;8.07;;
26050;SDS011;13825;53.496;10.020;2022-11-18T11:14:27;14.73;;;7.23;;
26050;SDS011;13825;53.496;10.020;2022-11-18T11:17:11;11.67;;;5.97;;
26050;SDS011;13825;53.496;10.020;2022-11-18T11:19:49;11.33;;;6.27;;
26050;SDS011;13825;53.496;10.020;2022-11-18T11:22:24;11.80;;;6.80;;
26050;SDS011;13825;53.496;10.020;2022-11-18T11:24:54;12.07;;;6.77;;
26050;SDS011;13825;53.496;10.020;2022-11-18T11:27:35;13.37;;;6.83;;
26050;SDS011;13825;53.496;10.020;2022-11-18T11:30:15;12.23;;;6.67;;
26050;SDS011;13825;53.496;10.020;2022-11-18T11:36:00;11.93;;;6.33;;
26050;SDS011;13825;53.496;10.020;2022-11-18T11:38:41;13.37;;;7.03;;
26050;SDS011;13825;53.496;10.020;2022-11-18T11:41:31;10.40;;;5.87;;
26050;SDS011;13825;53.496;10.020;2022-11-18T11:44:22;9.73;;;6.50;;
26050;SDS011;13825;53.496;10.020;2022-11-18T11:47:17;12.30;;;6.70;;
26050;SDS011;13825;53.496;10.020;2022-11-18T11:50:15;12.73;;;6.80;;
26050;SDS011;13825;53.496;10.020;2022-11-18T11:52:53;12.37;;;6.50;;
26050;SDS011;13825;53.496;10.020;2022-11-18T11:55:43;10.27;;;5.83;;
26050;SDS011;13825;53.496;10.020;2022-11-18T11:58:26;8.87;;;5.17;;
26050;SDS011;13825;53.496;10.020;2022-11-18T12:01:17;9.37;;;5.70;;
26050;SDS011;13825;53.496;10.020;2022-11-18T12:03:50;9.03;;;5.20;;
26050;SDS011;13825;53.496;10.020;2022-11-18T12:06:21;9.27;;;5.10;;
26050;SDS011;13825;53.496;10.020;2022-11-18T12:08:52;9.07;;;5.23;;
26050;SDS011;13825;53.496;10.020;2022-11-18T12:11:32;9.87;;;5.20;;
26050;SDS011;13825;53.496;10.020;2022-11-18T12:14:19;9.43;;;5.00;;
26050;SDS011;13825;53.496;10.020;2022-11-18T12:17:03;8.17;;;4.90;;
26050;SDS011;13825;53.496;10.020;2022-11-18T12:19:41;9.70;;;5.97;;
26050;SDS011;13825;53.496;10.020;2022-11-18T12:22:09;8.87;;;5.17;;
26050;SDS011;13825;53.496;10.020;2022-11-18T12:24:40;10.73;;;5.53;;
26050;SDS011;13825;53.496;10.020;2022-11-18T12:30:24;9.97;;;5.47;;
26050;SDS011;13825;53.496;10.020;2022-11-18T12:33:00;8.30;;;4.97;;
26050;SDS011;13825;53.496;10.020;2022-11-18T12:35:27;10.40;;;4.93;;
26050;SDS011;13825;53.496;10.020;2022-11-18T12:38:07;10.10;;;5.23;;
26050;SDS011;13825;53.496;10.020;2022-11-18T12:40:59;10.27;;;5.60;;
26050;SDS011;13825;53.496;10.020;2022-11-18T12:44:08;10.00;;;5.00;;
26050;SDS011;13825;53.496;10.020;2022-11-18T12:46:49;9.07;;;5.43;;
26050;SDS011;13825;53.496;10.020;2022-11-18T12:52:51;9.13;;;5.13;;
26050;SDS011;13825;53.496;10.020;2022-11-18T12:55:21;7.43;;;5.40;;
26050;SDS011;13825;53.496;10.020;2022-11-18T12:57:59;6.97;;;4.63;;
26050;SDS011;13825;53.496;10.020;2022-11-18T13:00:32;8.80;;;4.87;;
26050;SDS011;13825;53.496;10.020;2022-11-18T13:03:25;11.40;;;5.53;;
26050;SDS011;13825;53.496;10.020;2022-11-18T13:09:03;8.57;;;5.00;;
26050;SDS011;13825;53.496;10.020;2022-11-18T13:11:42;8.90;;;5.03;;
26050;SDS011;13825;53.496;10.020;2022-11-18T13:14:22;11.53;;;5.20;;
26050;SDS011;13825;53.496;10.020;2022-11-18T13:17:23;11.00;;;5.40;;
26050;SDS011;13825;53.496;10.020;2022-11-18T13:20:25;10.07;;;5.37;;
26050;SDS011;13825;53.496;10.020;2022-11-18T13:23:18;9.20;;;5.23;;
26050;SDS011;13825;53.496;10.020;2022-11-18T13:26:12;9.90;;;5.80;;
26050;SDS011;13825;53.496;10.020;2022-11-18T13:28:51;10.20;;;5.20;;
26050;SDS011;13825;53.496;10.020;2022-11-18T13:31:31;7.70;;;4.90;;
26050;SDS011;13825;53.496;10.020;2022-11-18T13:34:09;7.80;;;4.53;;
26050;SDS011;13825;53.496;10.020;2022-11-18T13:36:44;9.37;;;5.40;;
26050;SDS011;13825;53.496;10.020;2022-11-18T13:39:19;10.13;;;5.23;;
26050;SDS011;13825;53.496;10.020;2022-11-18T13:42:01;10.97;;;5.47;;
26050;SDS011;13825;53.496;10.020;2022-11-18T13:44:34;8.97;;;4.83;;
26050;SDS011;13825;53.496;10.020;2022-11-18T13:47:10;7.47;;;4.70;;
26050;SDS011;13825;53.496;10.020;2022-11-18T13:49:53;10.50;;;4.90;;
26050;SDS011;13825;53.496;10.020;2022-11-18T13:52:35;10.60;;;5.77;;
26050;SDS011;13825;53.496;10.020;2022-11-18T13:55:07;8.53;;;5.20;;
26050;SDS011;13825;53.496;10.020;2022-11-18T13:57:49;7.53;;;5.13;;
26050;SDS011;13825;53.496;10.020;2022-11-18T14:00:22;7.97;;;4.37;;
26050;SDS011;13825;53.496;10.020;2022-11-18T14:02:54;7.50;;;4.90;;
26050;SDS011;13825;53.496;10.020;2022-11-18T14:05:25;9.50;;;5.10;;
26050;SDS011;13825;53.496;10.020;2022-11-18T14:08:01;12.20;;;5.17;;
26050;SDS011;13825;53.496;10.020;2022-11-18T14:10:33;7.23;;;4.50;;
26050;SDS011;13825;53.496;10.020;2022-11-18T14:18:58;8.23;;;4.57;;
26050;SDS011;13825;53.496;10.020;2022-11-18T14:21:39;9.17;;;4.83;;
26050;SDS011;13825;53.496;10.020;2022-11-18T14:24:11;8.47;;;4.93;;
26050;SDS011;13825;53.496;10.020;2022-11-18T14:26:39;8.80;;;5.27;;
26050;SDS011;13825;53.496;10.020;2022-11-18T14:29:13;10.27;;;5.30;;
26050;SDS011;13825;53.496;10.020;2022-11-18T14:32:00;9.47;;;5.00;;
26050;SDS011;13825;53.496;10.020;2022-11-18T14:34:29;7.43;;;4.83;;
26050;SDS011;13825;53.496;10.020;2022-11-18T14:36:57;8.43;;;4.90;;
26050;SDS011;13825;53.496;10.020;2022-11-18T14:39:25;10.30;;;4.93;;
26050;SDS011;13825;53.496;10.020;2022-11-18T14:41:53;8.33;;;4.80;;
26050;SDS011;13825;53.496;10.020;2022-11-18T14:44:22;10.73;;;4.90;;
26050;SDS011;13825;53.496;10.020;2022-11-18T14:46:53;9.37;;;4.67;;
26050;SDS011;13825;53.496;10.020;2022-11-18T14:49:31;6.97;;;3.87;;
26050;SDS011;13825;53.496;10.020;2022-11-18T14:52:17;8.23;;;4.30;;
26050;SDS011;13825;53.496;10.020;2022-11-18T14:54:59;7.50;;;4.73;;
26050;SDS011;13825;53.496;10.020;2022-11-18T14:57:41;8.77;;;4.77;;
26050;SDS011;13825;53.496;10.020;2022-11-18T15:00:19;10.53;;;5.53;;
26050;SDS011;13825;53.496;10.020;2022-11-18T15:02:55;8.87;;;5.13;;
26050;SDS011;13825;53.496;10.020;2022-11-18T15:05:30;10.10;;;4.80;;
26050;SDS011;13825;53.496;10.020;2022-11-18T15:08:14;8.63;;;4.97;;
26050;SDS011;13825;53.496;10.020;2022-11-18T15:10:47;8.07;;;4.43;;
26050;SDS011;13825;53.496;10.020;2022-11-18T15:13:34;7.13;;;4.13;;
26050;SDS011;13825;53.496;10.020;2022-11-18T15:16:05;9.30;;;5.20;;
26050;SDS011;13825;53.496;10.020;2022-11-18T15:18:43;9.10;;;5.20;;
26050;SDS011;13825;53.496;10.020;2022-11-18T15:21:25;8.63;;;5.07;;
26050;SDS011;13825;53.496;10.020;2022-11-18T15:23:54;10.43;;;5.77;;
26050;SDS011;13825;53.496;10.020;2022-11-18T15:26:21;8.63;;;5.57;;
26050;SDS011;13825;53.496;10.020;2022-11-18T15:28:50;9.47;;;5.00;;
26050;SDS011;13825;53.496;10.020;2022-11-18T15:31:18;9.97;;;5.63;;
26050;SDS011;13825;53.496;10.020;2022-11-18T15:33:46;10.07;;;6.47;;
26050;SDS011;13825;53.496;10.020;2022-11-18T15:36:14;13.13;;;6.33;;
26050;SDS011;13825;53.496;10.020;2022-11-18T15:38:42;13.20;;;6.70;;
26050;SDS011;13825;53.496;10.020;2022-11-18T15:41:13;12.67;;;7.07;;
26050;SDS011;13825;53.496;10.020;2022-11-18T15:43:42;16.57;;;9.20;;
26050;SDS011;13825;53.496;10.020;2022-11-18T15:46:09;15.70;;;7.73;;
26050;SDS011;13825;53.496;10.020;2022-11-18T15:48:36;17.80;;;10.03;;
26050;SDS011;13825;53.496;10.020;2022-11-18T15:51:03;29.20;;;13.77;;
26050;SDS011;13825;53.496;10.020;2022-11-18T15:53:31;21.37;;;11.53;;
26050;SDS011;13825;53.496;10.020;2022-11-18T15:58:50;22.40;;;11.97;;
26050;SDS011;13825;53.496;10.020;2022-11-18T16:01:18;25.50;;;11.53;;
26050;SDS011;13825;53.496;10.020;2022-11-18T16:03:45;26.87;;;13.57;;
26050;SDS011;13825;53.496;10.020;2022-11-18T16:06:12;22.77;;;11.43;;
26050;SDS011;13825;53.496;10.020;2022-11-18T16:08:39;23.87;;;11.60;;
26050;SDS011;13825;53.496;10.020;2022-11-18T16:11:08;21.97;;;11.27;;
26050;SDS011;13825;53.496;10.020;2022-11-18T16:13:58;20.80;;;11.33;;
26050;SDS011;13825;53.496;10.020;2022-11-18T16:16:26;17.40;;;9.97;;
26050;SDS011;13825;53.496;10.020;2022-11-18T16:18:54;18.47;;;7.93;;
26050;SDS011;13825;53.496;10.020;2022-11-18T16:21:21;9.40;;;5.77;;
26050;SDS011;13825;53.496;10.020;2022-11-18T16:23:49;8.67;;;5.77;;
26050;SDS011;13825;53.496;10.020;2022-11-18T16:26:16;11.00;;;6.73;;
26050;SDS011;13825;53.496;10.020;2022-11-18T16:28:43;11.00;;;6.53;;
26050;SDS011;13825;53.496;10.020;2022-11-18T16:31:11;8.70;;;5.27;;
26050;SDS011;13825;53.496;10.020;2022-11-18T16:34:10;8.83;;;5.87;;
26050;SDS011;13825;53.496;10.020;2022-11-18T16:36:40;8.30;;;5.77;;
26050;SDS011;13825;53.496;10.020;2022-11-18T16:39:08;11.53;;;6.40;;
26050;SDS011;13825;53.496;10.020;2022-11-18T16:41:37;7.53;;;4.80;;
26050;SDS011;13825;53.496;10.020;2022-11-18T16:44:06;8.43;;;5.10;;
26050;SDS011;13825;53.496;10.020;2022-11-18T16:46:37;9.23;;;4.87;;
26050;SDS011;13825;53.496;10.020;2022-11-18T16:49:05;9.50;;;5.63;;
26050;SDS011;13825;53.496;10.020;2022-11-18T16:51:35;9.77;;;6.10;;
26050;SDS011;13825;53.496;10.020;2022-11-18T16:54:03;13.47;;;7.27;;
26050;SDS011;13825;53.496;10.020;2022-11-18T16:56:31;11.20;;;6.43;;
26050;SDS011;13825;53.496;10.020;2022-11-18T16:59:00;10.17;;;6.13;;
26050;SDS011;13825;53.496;10.020;2022-11-18T17:01:30;9.37;;;6.43;;
26050;SDS011;13825;53.496;10.020;2022-11-18T17:03:59;10.77;;;5.53;;
26050;SDS011;13825;53.496;10.020;2022-11-18T17:06:26;10.17;;;6.07;;
26050;SDS011;13825;53.496;10.020;2022-11-18T17:08:54;8.43;;;5.37;;
26050;SDS011;13825;53.496;10.020;2022-11-18T17:11:23;5.53;;;3.93;;
26050;SDS011;13825;53.496;10.020;2022-11-18T17:13:50;6.27;;;3.60;;
26050;SDS011;13825;53.496;10.020;2022-11-18T17:16:17;6.17;;;3.77;;
26050;SDS011;13825;53.496;10.020;2022-11-18T17:18:46;5.90;;;3.87;;
26050;SDS011;13825;53.496;10.020;2022-11-18T17:21:15;6.03;;;3.47;;
26050;SDS011;13825;53.496;10.020;2022-11-18T17:23:43;4.17;;;3.13;;
26050;SDS011;13825;53.496;10.020;2022-11-18T17:26:11;4.77;;;3.53;;
26050;SDS011;13825;53.496;10.020;2022-11-18T17:28:40;4.47;;;2.97;;
26050;SDS011;13825;53.496;10.020;2022-11-18T17:31:07;4.50;;;3.37;;
26050;SDS011;13825;53.496;10.020;2022-11-18T17:33:35;4.70;;;3.10;;
26050;SDS011;13825;53.496;10.020;2022-11-18T17:36:03;5.17;;;2.83;;
26050;SDS011;13825;53.496;10.020;2022-11-18T17:38:34;4.77;;;3.27;;
26050;SDS011;13825;53.496;10.020;2022-11-18T17:41:02;5.37;;;3.27;;
26050;SDS011;13825;53.496;10.020;2022-11-18T17:43:30;4.73;;;3.13;;
26050;SDS011;13825;53.496;10.020;2022-11-18T17:45:57;5.27;;;3.17;;
26050;SDS011;13825;53.496;10.020;2022-11-18T17:48:27;6.33;;;3.23;;
26050;SDS011;13825;53.496;10.020;2022-11-18T17:51:01;5.50;;;3.20;;
26050;SDS011;13825;53.496;10.020;2022-11-18T17:53:28;4.20;;;2.97;;
26050;SDS011;13825;53.496;10.020;2022-11-18T17:55:58;9.07;;;4.87;;
26050;SDS011;13825;53.496;10.020;2022-11-18T17:58:24;9.03;;;5.10;;
26050;SDS011;13825;53.496;10.020;2022-11-18T18:00:51;11.13;;;6.43;;
26050;SDS011;13825;53.496;10.020;2022-11-18T18:03:18;14.90;;;8.20;;
26050;SDS011;13825;53.496;10.020;2022-11-18T18:05:45;16.23;;;10.00;;
26050;SDS011;13825;53.496;10.020;2022-11-18T18:08:12;14.30;;;9.10;;
26050;SDS011;13825;53.496;10.020;2022-11-18T18:10:39;13.90;;;8.70;;
26050;SDS011;13825;53.496;10.020;2022-11-18T18:13:08;16.83;;;9.03;;
26050;SDS011;13825;53.496;10.020;2022-11-18T18:15:59;17.20;;;9.67;;
26050;SDS011;13825;53.496;10.020;2022-11-18T18:18:26;16.77;;;8.80;;